Hwange National Park, Zimbabwe
Current Conditions -  °F | °C
As of 5:00 AM on Wednesday 26 Nov 2014 (Local Time) from FBFT Reporting Station
Clear Clear  
Wind Chill: 70°   Ceiling: Unl
Heat Index: 70°   Visibility: 6mi
Dew Point: 57°   Wind: 6mph
Humidity: 64%   Direction: 110°ESE
Pressure: 30.03"   Gusts: NA
Location:  18.63°S, 27.03°E
Report Text: FBFT 260300Z 11005KT CAVOK 21/14 Q1017
Loading
Personal Weather Stations






























Interactive Weather Map New forecast layout! Learn more

10-Day Weather Forecast

Advertisements
Track Severe Weather on mobile